createdAt,value
2018-07-03T00:00:47.657Z,12.20
2018-07-03T00:03:16.652Z,12.30
2018-07-03T00:05:45.726Z,12.30
2018-07-03T00:08:14.720Z,12.20
2018-07-03T00:10:43.774Z,12.20
2018-07-03T00:13:13.018Z,12.20
2018-07-03T00:15:42.998Z,12.20
2018-07-03T00:18:12.150Z,12.20
2018-07-03T00:20:41.195Z,12.10
2018-07-03T00:23:10.238Z,12.10
2018-07-03T00:25:39.314Z,12.00
2018-07-03T00:28:10.444Z,12.00
2018-07-03T00:30:39.476Z,11.90
2018-07-03T00:33:08.663Z,11.90
2018-07-03T00:35:37.673Z,11.90
2018-07-03T00:38:06.723Z,12.00
2018-07-03T00:40:35.744Z,12.10
2018-07-03T00:43:04.815Z,12.00
2018-07-03T00:45:33.854Z,11.90
2018-07-03T00:48:02.968Z,11.90
2018-07-03T00:50:31.999Z,11.90
2018-07-03T00:53:00.990Z,11.80
2018-07-03T00:55:30.054Z,11.80
2018-07-03T00:57:59.064Z,11.70
2018-07-03T01:00:34.487Z,11.70
2018-07-03T01:03:04.360Z,11.70
2018-07-03T01:05:33.787Z,11.60
2018-07-03T01:08:02.779Z,11.60
2018-07-03T01:10:31.755Z,11.50
2018-07-03T01:13:00.781Z,11.50
2018-07-03T01:15:29.814Z,11.50
2018-07-03T01:20:27.366Z,11.50
2018-07-03T01:22:56.584Z,11.50
2018-07-03T01:30:23.083Z,11.40
2018-07-03T01:32:52.078Z,11.50
2018-07-03T01:35:21.114Z,11.50
2018-07-03T01:37:50.108Z,11.40
2018-07-03T01:40:19.225Z,11.40
2018-07-03T01:42:48.292Z,11.30
2018-07-03T01:45:17.286Z,11.30
2018-07-03T01:47:46.319Z,11.30
2018-07-03T01:50:15.307Z,11.20
2018-07-03T01:52:44.336Z,11.20
2018-07-03T01:55:13.352Z,11.20
2018-07-03T01:57:42.366Z,11.20
2018-07-03T02:00:11.380Z,11.20
2018-07-03T02:02:40.350Z,11.10
2018-07-03T02:05:09.364Z,11.10
2018-07-03T02:07:38.376Z,11.10
2018-07-03T02:10:07.421Z,11.10
2018-07-03T02:12:36.430Z,11.10
2018-07-03T02:15:05.474Z,11.00
2018-07-03T02:17:34.495Z,11.00
2018-07-03T02:20:03.593Z,11.00
2018-07-03T02:22:32.626Z,11.20
2018-07-03T02:25:01.624Z,11.30
2018-07-03T02:27:30.659Z,11.20
2018-07-03T02:29:59.635Z,11.10
2018-07-03T02:32:28.693Z,11.10
2018-07-03T02:34:57.703Z,11.10
2018-07-03T02:37:26.698Z,11.00
2018-07-03T02:39:55.757Z,11.00
2018-07-03T02:42:24.807Z,11.00
2018-07-03T02:44:53.855Z,10.90
2018-07-03T02:47:22.860Z,10.90
2018-07-03T02:49:51.898Z,10.90
2018-07-03T02:52:20.925Z,10.90
2018-07-03T02:54:49.952Z,10.90
2018-07-03T02:57:19.035Z,10.80
2018-07-03T02:59:48.026Z,10.90
2018-07-03T03:02:17.061Z,11.00
2018-07-03T03:04:46.056Z,11.00
2018-07-03T03:07:15.096Z,10.90
2018-07-03T03:09:44.124Z,10.90
2018-07-03T03:12:13.108Z,10.90
2018-07-03T03:14:42.159Z,10.90
2018-07-03T03:17:11.295Z,10.90
2018-07-03T03:19:40.332Z,10.90
2018-07-03T03:22:09.380Z,10.80
2018-07-03T03:24:38.515Z,10.80
2018-07-03T03:27:07.554Z,10.90
2018-07-03T03:29:36.583Z,10.90
2018-07-03T03:32:05.636Z,10.90
2018-07-03T03:34:34.671Z,10.90
2018-07-03T03:37:03.742Z,10.90
2018-07-03T03:39:32.780Z,10.90
2018-07-03T03:42:01.857Z,10.90
2018-07-03T03:44:30.849Z,10.90
2018-07-03T03:46:59.861Z,11.00
2018-07-03T03:49:28.863Z,11.00
2018-07-03T03:51:58.711Z,11.00
2018-07-03T03:54:27.746Z,11.00
2018-07-03T03:56:56.746Z,11.10
2018-07-03T03:59:25.767Z,11.10
2018-07-03T04:01:54.807Z,11.20
2018-07-03T04:04:24.263Z,11.20
2018-07-03T04:06:53.519Z,11.30
2018-07-03T04:09:22.550Z,11.40
2018-07-03T04:11:51.751Z,11.50
2018-07-03T04:14:20.779Z,11.60
2018-07-03T04:16:49.770Z,11.70
2018-07-03T04:19:18.794Z,11.80
2018-07-03T04:21:47.799Z,11.90
2018-07-03T04:24:16.815Z,12.00
2018-07-03T04:26:45.863Z,12.20
2018-07-03T04:29:14.898Z,12.30
2018-07-03T04:31:43.920Z,12.50
2018-07-03T04:34:12.944Z,12.80
2018-07-03T04:36:41.971Z,13.00
2018-07-03T04:39:11.315Z,13.20
2018-07-03T04:41:40.384Z,13.30
2018-07-03T04:44:09.410Z,13.50
2018-07-03T04:46:38.948Z,13.60
2018-07-03T04:49:08.007Z,13.70
2018-07-03T04:51:36.991Z,13.80
2018-07-03T04:54:06.049Z,13.90
2018-07-03T04:56:35.073Z,13.90
2018-07-03T04:59:04.100Z,14.00
2018-07-03T05:01:33.121Z,14.10
2018-07-03T05:04:02.155Z,14.10
2018-07-03T05:08:59.774Z,14.30
2018-07-03T05:11:29.176Z,14.40
2018-07-03T05:13:58.195Z,14.50
2018-07-03T05:16:27.220Z,14.70
2018-07-03T05:18:56.232Z,14.90
2018-07-03T05:21:25.271Z,15.10
2018-07-03T05:23:54.336Z,15.30
2018-07-03T05:26:23.348Z,15.70
2018-07-03T05:28:52.406Z,16.00
2018-07-03T05:31:21.423Z,16.40
2018-07-03T05:33:50.447Z,16.60
2018-07-03T05:36:19.474Z,17.00
2018-07-03T05:38:48.487Z,17.30
2018-07-03T05:41:17.647Z,17.50
2018-07-03T05:43:46.687Z,17.70
2018-07-03T05:46:15.765Z,17.60
2018-07-03T05:48:44.803Z,17.50
2018-07-03T05:53:42.465Z,17.40
2018-07-03T05:56:11.511Z,17.30
2018-07-03T05:58:41.421Z,17.10
2018-07-03T06:01:10.469Z,17.10
2018-07-03T06:03:39.542Z,17.10
2018-07-03T06:06:08.659Z,17.20
2018-07-03T06:08:37.734Z,17.40
2018-07-03T06:11:06.805Z,17.60
2018-07-03T06:13:35.855Z,17.90
2018-07-03T06:16:04.938Z,18.10
2018-07-03T06:18:33.930Z,18.40
2018-07-03T06:21:03.275Z,18.60
2018-07-03T06:23:32.290Z,18.60
2018-07-03T06:26:01.337Z,18.60
2018-07-03T06:28:30.367Z,18.50
2018-07-03T06:30:59.430Z,18.40
2018-07-03T06:33:28.477Z,18.40
2018-07-03T06:35:57.754Z,18.40
2018-07-03T06:38:26.609Z,18.50
2018-07-03T06:40:55.706Z,18.50
2018-07-03T06:43:24.829Z,18.50
2018-07-03T06:45:53.884Z,18.50
2018-07-03T06:48:22.904Z,18.60
2018-07-03T06:50:51.927Z,18.60
2018-07-03T06:53:20.946Z,18.60
2018-07-03T06:55:50.066Z,18.70
2018-07-03T06:58:19.101Z,18.80
2018-07-03T07:00:48.126Z,19.10
2018-07-03T07:03:17.172Z,19.20
2018-07-03T07:05:46.207Z,19.60
2018-07-03T07:08:15.234Z,19.80
2018-07-03T07:10:44.233Z,20.10
2018-07-03T07:13:13.266Z,20.30
2018-07-03T07:15:42.691Z,20.50
2018-07-03T07:18:11.738Z,20.60
2018-07-03T07:20:40.924Z,20.60
2018-07-03T07:23:10.011Z,20.60
2018-07-03T07:25:39.036Z,21.00
2018-07-03T07:28:08.082Z,21.10
2018-07-03T07:30:37.126Z,21.40
2018-07-03T07:33:06.338Z,21.80
2018-07-03T07:35:35.380Z,22.00
2018-07-03T07:38:04.495Z,22.40
2018-07-03T07:40:33.490Z,22.30
2018-07-03T07:43:02.540Z,22.20
2018-07-03T07:45:31.568Z,22.00
2018-07-03T07:48:00.669Z,22.00
2018-07-03T07:50:29.627Z,21.80
2018-07-03T07:52:58.671Z,21.70
2018-07-03T07:55:27.775Z,21.70
2018-07-03T07:57:56.779Z,22.00
2018-07-03T08:00:25.827Z,22.20
2018-07-03T08:02:54.859Z,22.20
2018-07-03T08:05:23.896Z,22.20
2018-07-03T08:07:52.898Z,22.60
2018-07-03T08:10:21.944Z,23.00
2018-07-03T08:12:51.032Z,23.30
2018-07-03T08:15:20.079Z,23.50
2018-07-03T08:17:49.095Z,23.80
2018-07-03T08:20:18.102Z,23.90
2018-07-03T08:22:47.142Z,24.10
2018-07-03T08:25:16.163Z,24.20
2018-07-03T08:27:45.174Z,24.30
2018-07-03T08:30:14.175Z,24.50
2018-07-03T08:32:43.243Z,24.40
2018-07-03T08:35:12.303Z,24.30
2018-07-03T08:37:41.355Z,24.20
2018-07-03T08:40:10.408Z,24.10
2018-07-03T08:42:39.437Z,24.00
2018-07-03T08:45:08.886Z,24.10
2018-07-03T08:47:38.046Z,24.30
2018-07-03T08:50:07.128Z,24.50
2018-07-03T08:52:36.135Z,24.50
2018-07-03T08:55:05.312Z,24.60
2018-07-03T08:57:34.395Z,24.80
2018-07-03T09:02:31.977Z,25.00
2018-07-03T09:05:01.175Z,24.90
2018-07-03T09:07:30.188Z,24.60
2018-07-03T09:09:59.236Z,24.30
2018-07-03T09:12:28.287Z,24.00
2018-07-03T09:14:57.339Z,23.90
2018-07-03T09:17:29.327Z,23.80
2018-07-03T09:19:59.454Z,23.70
2018-07-03T09:22:28.464Z,23.60
2018-07-03T09:24:57.506Z,23.60
2018-07-03T09:27:26.582Z,23.70
2018-07-03T09:29:55.702Z,24.10
2018-07-03T09:32:24.948Z,24.60
2018-07-03T09:34:53.997Z,25.10
2018-07-03T09:37:23.099Z,25.30
2018-07-03T09:39:52.102Z,25.10
2018-07-03T09:42:21.170Z,24.90
2018-07-03T09:44:50.207Z,24.90
2018-07-03T09:47:19.259Z,25.10
2018-07-03T09:49:48.267Z,25.10
2018-07-03T09:52:17.283Z,25.30
2018-07-03T09:54:46.386Z,25.40
2018-07-03T09:57:15.395Z,25.50
2018-07-03T09:59:44.405Z,25.40
2018-07-03T10:02:13.415Z,25.60
2018-07-03T10:04:42.427Z,25.60
2018-07-03T10:07:11.422Z,25.50
2018-07-03T10:09:40.429Z,25.40
2018-07-03T10:12:09.479Z,25.20
2018-07-03T10:14:38.532Z,25.20
2018-07-03T10:17:09.744Z,25.40
2018-07-03T10:19:39.364Z,25.30
2018-07-03T10:22:08.469Z,25.10
2018-07-03T10:24:37.475Z,25.00
2018-07-03T10:27:06.553Z,24.80
2018-07-03T10:29:35.791Z,24.60
2018-07-03T10:32:04.975Z,24.60
2018-07-03T10:34:34.066Z,24.90
2018-07-03T10:37:03.062Z,24.80
2018-07-03T10:39:32.096Z,24.80
2018-07-03T10:42:01.963Z,24.90
2018-07-03T10:44:30.985Z,25.00
2018-07-03T10:47:00.002Z,25.10
2018-07-03T10:49:29.029Z,25.00
2018-07-03T10:51:58.139Z,25.00
2018-07-03T10:54:27.269Z,25.00
2018-07-03T10:56:56.302Z,25.00
2018-07-03T10:59:25.295Z,25.00
2018-07-03T11:01:54.314Z,25.00
2018-07-03T11:06:51.874Z,25.20
2018-07-03T11:09:20.895Z,25.20
2018-07-03T11:11:49.928Z,25.20
2018-07-03T11:14:18.953Z,25.20
2018-07-03T11:16:47.966Z,25.30
2018-07-03T11:21:45.571Z,25.50
2018-07-03T11:24:14.712Z,25.60
2018-07-03T11:26:43.730Z,25.60
2018-07-03T11:29:12.758Z,25.50
2018-07-03T11:31:41.735Z,25.50
2018-07-03T11:34:10.783Z,25.40
2018-07-03T11:39:09.852Z,25.60
2018-07-03T11:41:38.892Z,25.80
2018-07-03T11:44:07.964Z,26.10
2018-07-03T11:46:36.986Z,26.20
2018-07-03T11:49:06.035Z,26.20
2018-07-03T11:51:35.051Z,26.40
2018-07-03T11:54:04.093Z,26.60
2018-07-03T11:56:33.135Z,26.50
2018-07-03T11:59:02.185Z,26.30
2018-07-03T12:01:31.391Z,26.30
2018-07-03T12:04:00.372Z,26.20
2018-07-03T12:06:29.466Z,26.30
2018-07-03T12:08:58.531Z,26.40
2018-07-03T12:11:27.562Z,26.50
2018-07-03T12:13:56.571Z,26.50
2018-07-03T12:16:25.586Z,26.50
2018-07-03T12:19:00.543Z,26.30
2018-07-03T12:21:30.005Z,26.10
2018-07-03T12:23:59.446Z,26.10
2018-07-03T12:26:28.512Z,26.00
2018-07-03T12:31:26.191Z,26.30
2018-07-03T12:33:55.274Z,26.40
2018-07-03T12:36:24.364Z,26.60
2018-07-03T12:38:53.471Z,26.40
2018-07-03T12:41:22.481Z,26.30
2018-07-03T12:43:51.626Z,26.30
2018-07-03T12:46:20.659Z,26.20
2018-07-03T12:48:49.714Z,26.10
2018-07-03T12:51:18.716Z,25.90
2018-07-03T12:53:47.735Z,25.80
2018-07-03T12:56:16.747Z,25.80
2018-07-03T12:58:45.776Z,25.80
2018-07-03T13:01:14.795Z,25.80
2018-07-03T13:03:43.902Z,25.70
2018-07-03T13:06:12.915Z,25.60
2018-07-03T13:08:41.976Z,25.50
2018-07-03T13:11:10.984Z,25.40
2018-07-03T13:13:40.011Z,25.30
2018-07-03T13:16:09.057Z,25.30
2018-07-03T13:18:38.060Z,25.30
2018-07-03T13:21:07.248Z,25.20
2018-07-03T13:23:36.266Z,25.30
2018-07-03T13:26:05.762Z,25.40
2018-07-03T13:28:34.808Z,25.40
2018-07-03T13:31:03.816Z,25.40
2018-07-03T13:33:32.822Z,25.50
2018-07-03T13:36:01.894Z,25.50
2018-07-03T13:38:30.936Z,25.60
2018-07-03T13:41:00.014Z,25.60
2018-07-03T13:43:29.042Z,25.60
2018-07-03T13:45:58.062Z,25.60
2018-07-03T13:48:27.142Z,25.70
2018-07-03T13:50:56.455Z,25.80
2018-07-03T13:53:25.541Z,25.80
2018-07-03T13:55:54.566Z,25.90
2018-07-03T13:58:23.608Z,25.80
2018-07-03T14:00:52.663Z,25.70
2018-07-03T14:03:21.682Z,25.70
2018-07-03T14:05:50.731Z,25.70
2018-07-03T14:08:19.750Z,25.80
2018-07-03T14:10:48.819Z,25.80
2018-07-03T14:13:18.411Z,25.60
2018-07-03T14:15:47.450Z,25.60
2018-07-03T14:18:19.689Z,25.60
2018-07-03T14:20:48.703Z,25.60
2018-07-03T14:23:17.740Z,25.50
2018-07-03T14:25:46.766Z,25.50
2018-07-03T14:28:15.786Z,25.50
2018-07-03T14:30:44.806Z,25.50
2018-07-03T14:33:13.847Z,25.50
2018-07-03T14:35:43.508Z,25.50
2018-07-03T14:38:12.562Z,25.50
2018-07-03T14:40:41.681Z,25.40
2018-07-03T14:43:10.872Z,25.40
2018-07-03T14:45:40.007Z,25.30
2018-07-03T14:48:09.653Z,25.30
2018-07-03T14:50:38.705Z,25.20
2018-07-03T14:53:07.796Z,25.30
2018-07-03T14:55:36.811Z,25.30
2018-07-03T14:58:06.092Z,25.40
2018-07-03T15:00:35.103Z,25.40
2018-07-03T15:03:04.196Z,25.40
2018-07-03T15:05:33.196Z,25.30
2018-07-03T15:08:02.273Z,25.30
2018-07-03T15:10:31.315Z,25.20
2018-07-03T15:13:00.424Z,25.20
2018-07-03T15:15:29.482Z,25.00
2018-07-03T15:17:58.541Z,25.00
2018-07-03T15:20:27.633Z,24.90
2018-07-03T15:22:56.624Z,24.90
2018-07-03T15:25:25.699Z,25.00
2018-07-03T15:27:54.717Z,24.90
2018-07-03T15:30:23.761Z,24.80
2018-07-03T15:32:52.804Z,24.70
2018-07-03T15:37:50.382Z,24.50
2018-07-03T15:40:19.448Z,24.50
2018-07-03T15:42:48.471Z,24.50
2018-07-03T15:47:46.210Z,24.30
2018-07-03T15:50:15.434Z,24.30
2018-07-03T15:52:44.493Z,24.40
2018-07-03T15:55:13.472Z,24.50
2018-07-03T15:57:42.503Z,24.50
2018-07-03T16:00:14.783Z,24.50
2018-07-03T16:03:58.126Z,24.50
2018-07-03T16:06:38.262Z,24.50
2018-07-03T16:09:12.311Z,24.40
2018-07-03T16:11:41.395Z,24.50
2018-07-03T16:14:11.329Z,24.50
2018-07-03T16:16:40.779Z,24.50
2018-07-03T16:19:14.949Z,24.30
2018-07-03T16:21:44.086Z,24.20
2018-07-03T16:26:42.221Z,24.10
2018-07-03T16:29:12.462Z,24.00
2018-07-03T16:31:41.937Z,23.90
2018-07-03T16:34:10.950Z,24.00
2018-07-03T16:36:40.038Z,23.90
2018-07-03T16:39:12.238Z,23.80
2018-07-03T16:41:41.348Z,23.80
2018-07-03T16:44:10.867Z,23.70
2018-07-03T16:46:39.963Z,23.70
2018-07-03T16:49:09.013Z,23.70
2018-07-03T16:51:38.671Z,23.70
2018-07-03T16:54:07.844Z,23.70
2018-07-03T16:56:36.866Z,23.60
2018-07-03T16:59:05.973Z,23.60
2018-07-03T17:01:34.965Z,23.50
2018-07-03T17:04:04.026Z,23.50
2018-07-03T17:06:33.076Z,23.50
2018-07-03T17:09:02.086Z,23.50
2018-07-03T17:11:31.087Z,23.50
2018-07-03T17:14:00.144Z,23.50
2018-07-03T17:16:29.230Z,23.50
2018-07-03T17:19:03.338Z,23.50
2018-07-03T17:21:32.404Z,23.50
2018-07-03T17:24:01.412Z,23.50
2018-07-03T17:26:30.490Z,23.50
2018-07-03T17:28:59.549Z,23.50
2018-07-03T17:31:28.645Z,23.50
2018-07-03T17:33:57.726Z,23.50
2018-07-03T17:36:26.734Z,23.50
2018-07-03T17:38:55.751Z,23.50
2018-07-03T17:41:35.758Z,23.50
2018-07-03T17:45:20.113Z,23.50
2018-07-03T17:47:49.543Z,23.60
2018-07-03T17:50:20.122Z,23.50
2018-07-03T17:52:50.028Z,23.60
2018-07-03T17:55:19.234Z,23.60
2018-07-03T17:57:48.820Z,23.60
2018-07-03T18:00:18.284Z,23.50
2018-07-03T18:02:47.724Z,23.50
2018-07-03T18:05:17.188Z,23.50
2018-07-03T18:07:46.644Z,23.50
2018-07-03T18:10:16.192Z,23.40
2018-07-03T18:12:45.495Z,23.40
2018-07-03T18:15:14.904Z,23.40
2018-07-03T18:17:44.525Z,23.40
2018-07-03T18:20:13.704Z,23.30
2018-07-03T18:22:43.369Z,23.30
2018-07-03T18:25:12.776Z,23.20
2018-07-03T18:27:42.022Z,23.10
2018-07-03T18:30:12.913Z,23.10
2018-07-03T18:32:42.362Z,23.00
2018-07-03T18:35:11.540Z,23.00
2018-07-03T18:37:40.758Z,23.00
2018-07-03T18:40:10.544Z,22.90
2018-07-03T18:42:39.694Z,22.90
2018-07-03T18:45:08.958Z,22.80
2018-07-03T18:47:38.140Z,22.80
2018-07-03T18:50:07.557Z,22.70
2018-07-03T18:52:36.826Z,22.60
2018-07-03T18:55:06.404Z,22.50
2018-07-03T18:57:35.761Z,22.40
2018-07-03T19:00:05.639Z,22.40
2018-07-03T19:02:34.847Z,22.30
2018-07-03T19:05:04.136Z,22.30
2018-07-03T19:07:33.417Z,22.20
2018-07-03T19:10:02.640Z,22.10
2018-07-03T19:12:31.768Z,22.10
2018-07-03T19:15:01.081Z,22.00
2018-07-03T19:17:30.265Z,21.90
2018-07-03T19:19:59.483Z,21.90
2018-07-03T19:22:28.668Z,21.80
2018-07-03T19:24:57.844Z,21.70
2018-07-03T19:27:27.038Z,21.50
2018-07-03T19:29:56.351Z,21.40
2018-07-03T19:32:26.241Z,21.30
2018-07-03T19:34:55.526Z,21.10
2018-07-03T19:37:24.732Z,21.00
2018-07-03T19:39:54.106Z,20.90
2018-07-03T19:42:23.424Z,20.70
2018-07-03T19:44:52.647Z,20.60
2018-07-03T19:47:21.935Z,20.50
2018-07-03T19:49:51.122Z,20.40
2018-07-03T19:52:20.340Z,20.20
2018-07-03T19:54:49.465Z,20.10
2018-07-03T19:57:18.719Z,20.00
2018-07-03T19:59:48.052Z,19.90
2018-07-03T20:02:17.233Z,19.80
2018-07-03T20:04:46.414Z,19.70
2018-07-03T20:07:15.540Z,19.60
2018-07-03T20:09:44.886Z,19.50
2018-07-03T20:12:14.319Z,19.40
2018-07-03T20:14:43.444Z,19.30
2018-07-03T20:17:12.523Z,19.30
2018-07-03T20:19:41.553Z,19.20
2018-07-03T20:22:10.618Z,19.10
2018-07-03T20:24:39.607Z,19.10
2018-07-03T20:27:08.653Z,19.00
2018-07-03T20:29:37.656Z,18.90
2018-07-03T20:32:06.702Z,18.90
2018-07-03T20:34:35.779Z,18.90
2018-07-03T20:37:05.244Z,18.90
2018-07-03T20:39:34.998Z,18.90
2018-07-03T20:42:04.374Z,18.80
2018-07-03T20:44:34.675Z,18.80
2018-07-03T20:47:04.924Z,18.70
2018-07-03T20:49:34.738Z,18.70
2018-07-03T20:52:04.402Z,18.60
2018-07-03T20:54:35.576Z,18.60
2018-07-03T20:57:06.240Z,18.60
2018-07-03T20:59:36.424Z,18.60
2018-07-03T21:02:08.779Z,18.50
2018-07-03T21:04:38.504Z,18.50
2018-07-03T21:07:07.818Z,18.50
2018-07-03T21:09:37.509Z,18.50
2018-07-03T21:12:07.147Z,18.50
2018-07-03T21:14:36.466Z,18.40
2018-07-03T21:17:05.904Z,18.30
2018-07-03T21:19:35.234Z,18.30
2018-07-03T21:22:06.112Z,18.30
2018-07-03T21:24:35.893Z,18.20
2018-07-03T21:27:05.874Z,18.20
2018-07-03T21:29:36.313Z,18.10
2018-07-03T21:32:06.039Z,18.10
2018-07-03T21:34:35.298Z,18.00
2018-07-03T21:37:05.762Z,18.00
2018-07-03T21:39:36.216Z,17.90
2018-07-03T21:42:05.718Z,17.80
2018-07-03T21:44:36.022Z,17.80
2018-07-03T21:47:05.588Z,17.70
2018-07-03T21:49:36.080Z,17.70
2018-07-03T21:52:05.896Z,17.60
2018-07-03T21:54:35.402Z,17.60
2018-07-03T21:57:05.367Z,17.50
2018-07-03T21:59:35.867Z,17.40
2018-07-03T22:02:06.424Z,17.30
2018-07-03T22:04:36.519Z,17.30
2018-07-03T22:07:06.415Z,17.20
2018-07-03T22:09:36.618Z,17.20
2018-07-03T22:12:06.148Z,17.20
2018-07-03T22:14:39.427Z,17.10
2018-07-03T22:17:09.154Z,17.00
2018-07-03T22:19:38.195Z,17.00
2018-07-03T22:22:07.416Z,17.00
2018-07-03T22:24:36.362Z,17.00
2018-07-03T22:27:05.567Z,17.00
2018-07-03T22:29:34.583Z,16.90
2018-07-03T22:32:03.639Z,16.90
2018-07-03T22:34:32.644Z,16.90
2018-07-03T22:37:01.658Z,16.90
2018-07-03T22:39:30.738Z,16.90
2018-07-03T22:41:59.826Z,16.90
2018-07-03T22:44:28.864Z,16.90
2018-07-03T22:46:57.935Z,16.90
2018-07-03T22:49:26.996Z,16.90
2018-07-03T22:51:56.016Z,16.90
2018-07-03T22:54:25.083Z,17.00
2018-07-03T22:56:54.067Z,17.00
2018-07-03T22:59:23.087Z,17.00
2018-07-03T23:01:52.138Z,16.90
2018-07-03T23:04:21.204Z,16.90
2018-07-03T23:06:50.243Z,16.90
2018-07-03T23:09:19.232Z,17.00
2018-07-03T23:11:48.279Z,17.00
2018-07-03T23:14:17.250Z,17.00
2018-07-03T23:16:46.313Z,17.10
2018-07-03T23:19:15.300Z,17.20
2018-07-03T23:21:44.326Z,17.20
2018-07-03T23:24:13.563Z,17.20
2018-07-03T23:26:42.611Z,17.20
2018-07-03T23:29:11.614Z,17.30
2018-07-03T23:31:40.636Z,17.40
2018-07-03T23:34:09.867Z,17.40
2018-07-03T23:36:38.887Z,17.40
2018-07-03T23:39:09.566Z,17.40
2018-07-03T23:41:38.583Z,17.40
2018-07-03T23:44:07.608Z,17.40
2018-07-03T23:46:47.724Z,17.40
2018-07-03T23:52:01.923Z,17.30
2018-07-03T23:54:41.954Z,17.30
2018-07-03T23:57:21.893Z,17.30
